sensor_id;sensor_type;location;lat;lon;timestamp;temperature;humidity
921;DHT22;447;51.332;6.778;2022-09-17T00:01:17;17.60;84.00
921;DHT22;447;51.332;6.778;2022-09-17T00:03:44;17.60;84.10
921;DHT22;447;51.332;6.778;2022-09-17T00:06:13;17.60;84.10
921;DHT22;447;51.332;6.778;2022-09-17T00:08:40;17.60;84.10
921;DHT22;447;51.332;6.778;2022-09-17T00:13:36;17.60;85.00
921;DHT22;447;51.332;6.778;2022-09-17T00:16:19;17.50;84.10
921;DHT22;447;51.332;6.778;2022-09-17T00:18:50;17.60;84.20
921;DHT22;447;51.332;6.778;2022-09-17T00:21:19;17.60;84.30
921;DHT22;447;51.332;6.778;2022-09-17T00:23:47;17.50;84.20
921;DHT22;447;51.332;6.778;2022-09-17T00:26:16;17.50;84.20
921;DHT22;447;51.332;6.778;2022-09-17T00:28:51;17.50;84.20
921;DHT22;447;51.332;6.778;2022-09-17T00:31:18;17.50;84.20
921;DHT22;447;51.332;6.778;2022-09-17T00:33:47;17.50;84.20
921;DHT22;447;51.332;6.778;2022-09-17T00:36:14;17.50;84.30
921;DHT22;447;51.332;6.778;2022-09-17T00:38:44;17.50;84.30
921;DHT22;447;51.332;6.778;2022-09-17T00:41:15;17.50;84.40
921;DHT22;447;51.332;6.778;2022-09-17T00:43:47;17.50;84.40
921;DHT22;447;51.332;6.778;2022-09-17T00:46:21;17.50;84.50
921;DHT22;447;51.332;6.778;2022-09-17T00:48:58;17.50;84.60
921;DHT22;447;51.332;6.778;2022-09-17T00:51:36;17.50;84.70
921;DHT22;447;51.332;6.778;2022-09-17T00:54:07;17.40;84.60
921;DHT22;447;51.332;6.778;2022-09-17T00:56:39;17.40;84.70
921;DHT22;447;51.332;6.778;2022-09-17T00:59:06;17.40;84.80
921;DHT22;447;51.332;6.778;2022-09-17T01:01:35;17.40;84.90
921;DHT22;447;51.332;6.778;2022-09-17T01:04:04;17.40;84.80
921;DHT22;447;51.332;6.778;2022-09-17T01:07:07;17.40;84.90
921;DHT22;447;51.332;6.778;2022-09-17T01:09:58;17.40;85.00
921;DHT22;447;51.332;6.778;2022-09-17T01:43:57;17.30;85.50
921;DHT22;447;51.332;6.778;2022-09-17T01:46:39;17.30;85.50
921;DHT22;447;51.332;6.778;2022-09-17T01:49:08;17.30;85.60
921;DHT22;447;51.332;6.778;2022-09-17T01:51:40;17.20;85.40
921;DHT22;447;51.332;6.778;2022-09-17T01:59:33;17.20;85.50
921;DHT22;447;51.332;6.778;2022-09-17T02:05:00;17.30;85.70
921;DHT22;447;51.332;6.778;2022-09-17T02:07:28;17.20;85.60
921;DHT22;447;51.332;6.778;2022-09-17T02:10:10;17.30;85.70
921;DHT22;447;51.332;6.778;2022-09-17T02:13:14;17.20;85.60
921;DHT22;447;51.332;6.778;2022-09-17T02:15:49;17.20;85.60
921;DHT22;447;51.332;6.778;2022-09-17T02:18:38;17.20;85.70
921;DHT22;447;51.332;6.778;2022-09-17T02:21:25;17.20;85.70
921;DHT22;447;51.332;6.778;2022-09-17T02:26:29;17.20;85.90
921;DHT22;447;51.332;6.778;2022-09-17T02:29:01;17.20;85.90
921;DHT22;447;51.332;6.778;2022-09-17T02:31:31;17.20;85.90
921;DHT22;447;51.332;6.778;2022-09-17T02:34:02;17.20;85.90
921;DHT22;447;51.332;6.778;2022-09-17T02:36:30;17.20;85.90
921;DHT22;447;51.332;6.778;2022-09-17T02:38:59;17.10;85.80
921;DHT22;447;51.332;6.778;2022-09-17T02:47:27;17.10;85.80
921;DHT22;447;51.332;6.778;2022-09-17T02:50:07;17.20;86.00
921;DHT22;447;51.332;6.778;2022-09-17T02:55:14;17.10;85.90
921;DHT22;447;51.332;6.778;2022-09-17T02:58:31;17.10;86.00
921;DHT22;447;51.332;6.778;2022-09-17T03:01:05;17.10;86.00
921;DHT22;447;51.332;6.778;2022-09-17T03:03:38;17.10;86.10
921;DHT22;447;51.332;6.778;2022-09-17T03:06:06;17.10;86.00
921;DHT22;447;51.332;6.778;2022-09-17T03:08:36;17.10;86.00
921;DHT22;447;51.332;6.778;2022-09-17T03:11:08;17.10;86.00
921;DHT22;447;51.332;6.778;2022-09-17T03:13:35;17.10;86.00
921;DHT22;447;51.332;6.778;2022-09-17T03:16:04;17.10;85.90
921;DHT22;447;51.332;6.778;2022-09-17T03:18:33;17.10;86.00
921;DHT22;447;51.332;6.778;2022-09-17T03:20:59;17.10;86.00
921;DHT22;447;51.332;6.778;2022-09-17T03:23:27;17.10;85.90
921;DHT22;447;51.332;6.778;2022-09-17T03:25:54;17.10;86.00
921;DHT22;447;51.332;6.778;2022-09-17T03:28:21;17.10;86.00
921;DHT22;447;51.332;6.778;2022-09-17T03:30:47;17.00;85.90
921;DHT22;447;51.332;6.778;2022-09-17T03:33:15;17.00;85.90
921;DHT22;447;51.332;6.778;2022-09-17T03:35:47;17.00;86.00
921;DHT22;447;51.332;6.778;2022-09-17T03:38:16;17.00;85.90
921;DHT22;447;51.332;6.778;2022-09-17T03:43:24;17.00;86.00
921;DHT22;447;51.332;6.778;2022-09-17T03:45:56;17.00;86.00
921;DHT22;447;51.332;6.778;2022-09-17T03:48:26;17.00;86.00
921;DHT22;447;51.332;6.778;2022-09-17T03:50:56;17.00;86.00
921;DHT22;447;51.332;6.778;2022-09-17T03:53:22;17.00;86.10
921;DHT22;447;51.332;6.778;2022-09-17T03:55:51;17.00;86.10
921;DHT22;447;51.332;6.778;2022-09-17T03:58:21;17.00;86.10
921;DHT22;447;51.332;6.778;2022-09-17T04:00:53;16.90;86.00
921;DHT22;447;51.332;6.778;2022-09-17T04:03:27;16.90;86.00
921;DHT22;447;51.332;6.778;2022-09-17T04:05:55;17.00;86.10
921;DHT22;447;51.332;6.778;2022-09-17T04:08:24;16.90;86.00
921;DHT22;447;51.332;6.778;2022-09-17T04:10:50;16.90;86.10
921;DHT22;447;51.332;6.778;2022-09-17T04:13:19;16.90;86.10
921;DHT22;447;51.332;6.778;2022-09-17T04:15:45;16.90;86.10
921;DHT22;447;51.332;6.778;2022-09-17T04:18:15;16.90;86.10
921;DHT22;447;51.332;6.778;2022-09-17T04:20:43;16.90;86.20
921;DHT22;447;51.332;6.778;2022-09-17T04:23:12;16.90;86.20
921;DHT22;447;51.332;6.778;2022-09-17T04:25:42;16.90;86.20
921;DHT22;447;51.332;6.778;2022-09-17T04:28:12;16.90;86.20
921;DHT22;447;51.332;6.778;2022-09-17T04:30:40;16.90;86.30
921;DHT22;447;51.332;6.778;2022-09-17T04:33:10;16.90;86.30
921;DHT22;447;51.332;6.778;2022-09-17T04:35:36;16.90;86.50
921;DHT22;447;51.332;6.778;2022-09-17T04:38:02;16.80;86.40
921;DHT22;447;51.332;6.778;2022-09-17T04:40:28;16.90;86.60
921;DHT22;447;51.332;6.778;2022-09-17T04:43:00;16.90;86.60
921;DHT22;447;51.332;6.778;2022-09-17T04:45:29;16.80;86.50
921;DHT22;447;51.332;6.778;2022-09-17T04:47:55;16.80;86.50
921;DHT22;447;51.332;6.778;2022-09-17T04:50:21;16.80;86.50
921;DHT22;447;51.332;6.778;2022-09-17T04:52:50;16.80;86.50
921;DHT22;447;51.332;6.778;2022-09-17T04:55:18;16.80;86.50
921;DHT22;447;51.332;6.778;2022-09-17T04:57:52;16.80;86.50
921;DHT22;447;51.332;6.778;2022-09-17T05:00:21;16.80;86.60
921;DHT22;447;51.332;6.778;2022-09-17T05:02:51;16.80;86.50
921;DHT22;447;51.332;6.778;2022-09-17T05:05:20;16.80;86.60
921;DHT22;447;51.332;6.778;2022-09-17T05:07:46;16.80;86.60
921;DHT22;447;51.332;6.778;2022-09-17T05:10:15;16.80;86.60
921;DHT22;447;51.332;6.778;2022-09-17T05:12:50;16.70;86.50
921;DHT22;447;51.332;6.778;2022-09-17T05:15:23;16.70;86.50
921;DHT22;447;51.332;6.778;2022-09-17T05:17:51;16.70;86.50
921;DHT22;447;51.332;6.778;2022-09-17T05:20:18;16.70;86.50
921;DHT22;447;51.332;6.778;2022-09-17T05:22:47;16.80;86.60
921;DHT22;447;51.332;6.778;2022-09-17T05:25:15;16.70;86.40
921;DHT22;447;51.332;6.778;2022-09-17T05:27:44;16.70;86.40
921;DHT22;447;51.332;6.778;2022-09-17T05:30:11;16.70;86.50
921;DHT22;447;51.332;6.778;2022-09-17T05:32:40;16.70;86.50
921;DHT22;447;51.332;6.778;2022-09-17T05:35:09;16.70;86.60
921;DHT22;447;51.332;6.778;2022-09-17T05:37:36;16.70;86.60
921;DHT22;447;51.332;6.778;2022-09-17T05:40:03;16.70;86.70
921;DHT22;447;51.332;6.778;2022-09-17T05:42:32;16.70;86.60
921;DHT22;447;51.332;6.778;2022-09-17T05:44:57;16.70;86.70
921;DHT22;447;51.332;6.778;2022-09-17T05:47:24;16.70;86.70
921;DHT22;447;51.332;6.778;2022-09-17T05:49:49;16.60;86.50
921;DHT22;447;51.332;6.778;2022-09-17T05:52:15;16.60;86.50
921;DHT22;447;51.332;6.778;2022-09-17T05:54:42;16.60;86.60
921;DHT22;447;51.332;6.778;2022-09-17T05:57:08;16.60;86.60
921;DHT22;447;51.332;6.778;2022-09-17T05:59:34;16.60;87.40
921;DHT22;447;51.332;6.778;2022-09-17T06:02:00;16.60;86.70
921;DHT22;447;51.332;6.778;2022-09-17T06:04:27;16.60;86.70
921;DHT22;447;51.332;6.778;2022-09-17T06:06:52;16.70;86.80
921;DHT22;447;51.332;6.778;2022-09-17T06:09:41;16.60;86.70
921;DHT22;447;51.332;6.778;2022-09-17T06:12:07;16.60;86.80
921;DHT22;447;51.332;6.778;2022-09-17T06:14:33;16.60;86.80
921;DHT22;447;51.332;6.778;2022-09-17T06:16:59;16.60;86.80
921;DHT22;447;51.332;6.778;2022-09-17T06:19:28;16.60;86.70
921;DHT22;447;51.332;6.778;2022-09-17T06:21:55;16.60;86.80
921;DHT22;447;51.332;6.778;2022-09-17T06:24:21;16.50;86.70
921;DHT22;447;51.332;6.778;2022-09-17T06:26:47;16.60;86.90
921;DHT22;447;51.332;6.778;2022-09-17T06:29:13;16.60;86.80
921;DHT22;447;51.332;6.778;2022-09-17T06:31:40;16.60;86.90
921;DHT22;447;51.332;6.778;2022-09-17T06:34:10;16.60;86.80
921;DHT22;447;51.332;6.778;2022-09-17T06:36:38;16.50;86.80
921;DHT22;447;51.332;6.778;2022-09-17T06:39:06;16.50;86.80
921;DHT22;447;51.332;6.778;2022-09-17T06:41:35;16.50;86.80
921;DHT22;447;51.332;6.778;2022-09-17T06:44:21;16.50;86.80
921;DHT22;447;51.332;6.778;2022-09-17T06:46:52;16.50;86.80
921;DHT22;447;51.332;6.778;2022-09-17T06:49:18;16.50;86.90
921;DHT22;447;51.332;6.778;2022-09-17T06:51:49;16.50;86.80
921;DHT22;447;51.332;6.778;2022-09-17T06:54:18;16.50;86.90
921;DHT22;447;51.332;6.778;2022-09-17T06:56:45;16.50;86.90
921;DHT22;447;51.332;6.778;2022-09-17T06:59:14;16.50;86.90
921;DHT22;447;51.332;6.778;2022-09-17T07:01:40;16.50;86.90
921;DHT22;447;51.332;6.778;2022-09-17T07:04:06;16.50;86.90
921;DHT22;447;51.332;6.778;2022-09-17T07:06:32;16.50;87.00
921;DHT22;447;51.332;6.778;2022-09-17T07:08:58;16.50;87.00
921;DHT22;447;51.332;6.778;2022-09-17T07:11:24;16.50;87.00
921;DHT22;447;51.332;6.778;2022-09-17T07:13:52;16.50;87.10
921;DHT22;447;51.332;6.778;2022-09-17T07:16:18;16.50;87.00
921;DHT22;447;51.332;6.778;2022-09-17T07:18:46;16.40;86.90
921;DHT22;447;51.332;6.778;2022-09-17T07:21:17;16.40;86.90
921;DHT22;447;51.332;6.778;2022-09-17T07:23:44;16.50;87.00
921;DHT22;447;51.332;6.778;2022-09-17T07:26:13;16.50;87.00
921;DHT22;447;51.332;6.778;2022-09-17T07:28:40;16.50;87.10
921;DHT22;447;51.332;6.778;2022-09-17T07:31:07;16.40;87.00
921;DHT22;447;51.332;6.778;2022-09-17T07:33:36;16.40;87.00
921;DHT22;447;51.332;6.778;2022-09-17T07:36:13;16.40;87.00
921;DHT22;447;51.332;6.778;2022-09-17T07:38:42;16.40;87.00
921;DHT22;447;51.332;6.778;2022-09-17T07:41:11;16.50;87.10
921;DHT22;447;51.332;6.778;2022-09-17T07:43:38;16.40;87.10
921;DHT22;447;51.332;6.778;2022-09-17T07:46:05;16.40;87.00
921;DHT22;447;51.332;6.778;2022-09-17T07:48:38;16.40;87.00
921;DHT22;447;51.332;6.778;2022-09-17T07:51:04;16.40;87.10
921;DHT22;447;51.332;6.778;2022-09-17T07:53:30;16.40;87.10
921;DHT22;447;51.332;6.778;2022-09-17T07:55:58;16.40;87.10
921;DHT22;447;51.332;6.778;2022-09-17T07:58:45;16.40;87.00
921;DHT22;447;51.332;6.778;2022-09-17T08:01:12;16.40;87.00
921;DHT22;447;51.332;6.778;2022-09-17T08:03:39;16.40;87.00
921;DHT22;447;51.332;6.778;2022-09-17T08:06:11;16.40;87.00
921;DHT22;447;51.332;6.778;2022-09-17T08:08:38;16.40;87.00
921;DHT22;447;51.332;6.778;2022-09-17T08:11:10;16.40;86.90
921;DHT22;447;51.332;6.778;2022-09-17T08:13:36;16.40;86.90
921;DHT22;447;51.332;6.778;2022-09-17T08:16:07;16.40;86.90
921;DHT22;447;51.332;6.778;2022-09-17T08:18:34;16.40;86.90
921;DHT22;447;51.332;6.778;2022-09-17T08:21:04;16.40;86.80
921;DHT22;447;51.332;6.778;2022-09-17T08:23:35;16.40;86.80
921;DHT22;447;51.332;6.778;2022-09-17T08:26:10;16.40;86.70
921;DHT22;447;51.332;6.778;2022-09-17T08:28:58;16.40;86.70
921;DHT22;447;51.332;6.778;2022-09-17T08:31:24;16.40;86.70
921;DHT22;447;51.332;6.778;2022-09-17T08:33:55;16.40;86.70
921;DHT22;447;51.332;6.778;2022-09-17T08:36:21;16.40;86.70
921;DHT22;447;51.332;6.778;2022-09-17T08:38:52;16.40;86.60
921;DHT22;447;51.332;6.778;2022-09-17T08:44:23;16.40;86.50
921;DHT22;447;51.332;6.778;2022-09-17T08:47:12;16.50;86.70
921;DHT22;447;51.332;6.778;2022-09-17T08:49:59;16.40;86.50
921;DHT22;447;51.332;6.778;2022-09-17T08:52:59;16.40;86.60
921;DHT22;447;51.332;6.778;2022-09-17T09:00:52;16.50;86.50
921;DHT22;447;51.332;6.778;2022-09-17T09:06:08;16.50;86.30
921;DHT22;447;51.332;6.778;2022-09-17T09:08:53;16.50;86.20
921;DHT22;447;51.332;6.778;2022-09-17T09:11:23;16.50;86.20
921;DHT22;447;51.332;6.778;2022-09-17T09:14:21;16.50;86.10
921;DHT22;447;51.332;6.778;2022-09-17T09:16:51;16.50;86.00
921;DHT22;447;51.332;6.778;2022-09-17T09:19:40;16.50;85.90
921;DHT22;447;51.332;6.778;2022-09-17T09:25:04;16.60;85.80
921;DHT22;447;51.332;6.778;2022-09-17T09:33:32;16.60;85.70
921;DHT22;447;51.332;6.778;2022-09-17T09:36:00;16.60;85.60
921;DHT22;447;51.332;6.778;2022-09-17T09:38:36;16.60;85.60
921;DHT22;447;51.332;6.778;2022-09-17T09:41:07;16.60;85.50
921;DHT22;447;51.332;6.778;2022-09-17T09:43:39;16.60;85.30
921;DHT22;447;51.332;6.778;2022-09-17T09:57:42;16.70;84.70
921;DHT22;447;51.332;6.778;2022-09-17T10:02:56;16.70;84.60
921;DHT22;447;51.332;6.778;2022-09-17T10:05:26;16.80;84.70
921;DHT22;447;51.332;6.778;2022-09-17T10:07:58;16.80;84.50
921;DHT22;447;51.332;6.778;2022-09-17T10:10:31;16.80;84.40
921;DHT22;447;51.332;6.778;2022-09-17T10:13:05;16.80;84.30
921;DHT22;447;51.332;6.778;2022-09-17T10:15:32;16.80;84.20
921;DHT22;447;51.332;6.778;2022-09-17T10:18:15;16.80;84.10
921;DHT22;447;51.332;6.778;2022-09-17T10:20:59;16.80;84.10
921;DHT22;447;51.332;6.778;2022-09-17T10:23:32;16.90;84.20
921;DHT22;447;51.332;6.778;2022-09-17T10:26:03;16.90;84.10
921;DHT22;447;51.332;6.778;2022-09-17T10:28:45;16.90;84.10
921;DHT22;447;51.332;6.778;2022-09-17T10:31:18;16.90;83.90
921;DHT22;447;51.332;6.778;2022-09-17T10:34:05;16.90;83.80
921;DHT22;447;51.332;6.778;2022-09-17T10:36:54;17.00;83.80
921;DHT22;447;51.332;6.778;2022-09-17T10:39:30;17.00;83.80
921;DHT22;447;51.332;6.778;2022-09-17T10:44:29;17.00;83.90
921;DHT22;447;51.332;6.778;2022-09-17T10:47:25;17.00;84.00
921;DHT22;447;51.332;6.778;2022-09-17T10:50:01;17.00;84.00
921;DHT22;447;51.332;6.778;2022-09-17T10:52:33;17.10;84.10
921;DHT22;447;51.332;6.778;2022-09-17T11:00:43;17.10;83.90
921;DHT22;447;51.332;6.778;2022-09-17T11:25:44;17.20;83.90
921;DHT22;447;51.332;6.778;2022-09-17T11:42:33;17.30;83.20
921;DHT22;447;51.332;6.778;2022-09-17T11:45:16;17.40;83.20
921;DHT22;447;51.332;6.778;2022-09-17T11:50:26;17.40;83.00
921;DHT22;447;51.332;6.778;2022-09-17T11:53:28;17.40;83.10
921;DHT22;447;51.332;6.778;2022-09-17T11:58:48;17.40;83.30
921;DHT22;447;51.332;6.778;2022-09-17T12:01:43;17.40;83.30
921;DHT22;447;51.332;6.778;2022-09-17T12:09:54;17.40;83.50
921;DHT22;447;51.332;6.778;2022-09-17T12:12:23;17.40;83.60
921;DHT22;447;51.332;6.778;2022-09-17T12:17:48;17.40;83.60
921;DHT22;447;51.332;6.778;2022-09-17T12:22:50;17.50;83.60
921;DHT22;447;51.332;6.778;2022-09-17T12:25:21;17.50;83.60
921;DHT22;447;51.332;6.778;2022-09-17T12:28:01;17.50;83.80
921;DHT22;447;51.332;6.778;2022-09-17T12:30:39;17.50;83.90
921;DHT22;447;51.332;6.778;2022-09-17T12:33:30;17.50;84.00
921;DHT22;447;51.332;6.778;2022-09-17T12:51:58;17.50;85.00
921;DHT22;447;51.332;6.778;2022-09-17T13:00:53;17.50;85.50
921;DHT22;447;51.332;6.778;2022-09-17T13:03:27;17.50;85.70
921;DHT22;447;51.332;6.778;2022-09-17T13:22:44;17.60;86.10
921;DHT22;447;51.332;6.778;2022-09-17T13:25:18;17.60;86.10
921;DHT22;447;51.332;6.778;2022-09-17T13:27:46;17.60;86.10
921;DHT22;447;51.332;6.778;2022-09-17T13:30:16;17.60;86.10
921;DHT22;447;51.332;6.778;2022-09-17T13:32:52;17.60;86.10
921;DHT22;447;51.332;6.778;2022-09-17T13:37:59;17.70;86.10
921;DHT22;447;51.332;6.778;2022-09-17T13:40:32;17.70;86.00
921;DHT22;447;51.332;6.778;2022-09-17T13:48:29;17.70;85.70
921;DHT22;447;51.332;6.778;2022-09-17T13:50:56;17.70;85.70
921;DHT22;447;51.332;6.778;2022-09-17T13:53:26;17.80;85.60
921;DHT22;447;51.332;6.778;2022-09-17T13:55:56;17.80;85.50
921;DHT22;447;51.332;6.778;2022-09-17T13:58:27;17.80;85.50
921;DHT22;447;51.332;6.778;2022-09-17T14:00:58;17.80;85.30
921;DHT22;447;51.332;6.778;2022-09-17T14:13:56;17.80;85.50
921;DHT22;447;51.332;6.778;2022-09-17T14:22:07;17.80;86.30
921;DHT22;447;51.332;6.778;2022-09-17T14:29:46;17.80;87.00
921;DHT22;447;51.332;6.778;2022-09-17T14:32:20;17.70;87.10
921;DHT22;447;51.332;6.778;2022-09-17T14:34:59;17.70;87.20
921;DHT22;447;51.332;6.778;2022-09-17T14:37:29;17.70;87.20
921;DHT22;447;51.332;6.778;2022-09-17T14:39:58;17.70;87.30
921;DHT22;447;51.332;6.778;2022-09-17T14:42:33;17.70;87.30
921;DHT22;447;51.332;6.778;2022-09-17T14:45:07;17.70;87.40
921;DHT22;447;51.332;6.778;2022-09-17T14:48:42;17.70;87.50
921;DHT22;447;51.332;6.778;2022-09-17T14:53:42;17.70;87.50
921;DHT22;447;51.332;6.778;2022-09-17T14:56:17;17.70;87.60
921;DHT22;447;51.332;6.778;2022-09-17T14:58:49;17.70;87.80
921;DHT22;447;51.332;6.778;2022-09-17T15:01:24;17.70;87.90
921;DHT22;447;51.332;6.778;2022-09-17T15:06:40;17.70;88.00
921;DHT22;447;51.332;6.778;2022-09-17T15:09:21;17.70;88.00
921;DHT22;447;51.332;6.778;2022-09-17T15:11:47;17.70;88.00
921;DHT22;447;51.332;6.778;2022-09-17T15:14:20;17.70;88.00
921;DHT22;447;51.332;6.778;2022-09-17T15:16:50;17.70;88.00
921;DHT22;447;51.332;6.778;2022-09-17T15:22:20;17.70;88.10
921;DHT22;447;51.332;6.778;2022-09-17T15:25:01;17.70;88.20
921;DHT22;447;51.332;6.778;2022-09-17T15:27:44;17.70;88.20
921;DHT22;447;51.332;6.778;2022-09-17T15:30:22;17.70;88.10
921;DHT22;447;51.332;6.778;2022-09-17T15:35:30;17.80;88.40
921;DHT22;447;51.332;6.778;2022-09-17T15:38:01;17.80;88.10
921;DHT22;447;51.332;6.778;2022-09-17T15:40:33;17.80;87.90
921;DHT22;447;51.332;6.778;2022-09-17T15:43:26;17.80;87.60
921;DHT22;447;51.332;6.778;2022-09-17T15:45:50;17.80;87.40
921;DHT22;447;51.332;6.778;2022-09-17T15:48:49;17.80;87.10
921;DHT22;447;51.332;6.778;2022-09-17T15:51:44;17.80;86.80
921;DHT22;447;51.332;6.778;2022-09-17T15:54:30;17.80;86.70
921;DHT22;447;51.332;6.778;2022-09-17T15:56:59;17.80;86.40
921;DHT22;447;51.332;6.778;2022-09-17T15:59:33;17.80;86.10
921;DHT22;447;51.332;6.778;2022-09-17T16:02:00;17.80;86.00
921;DHT22;447;51.332;6.778;2022-09-17T16:04:33;17.80;86.00
921;DHT22;447;51.332;6.778;2022-09-17T16:09:45;17.80;85.90
921;DHT22;447;51.332;6.778;2022-09-17T16:12:22;17.80;85.80
921;DHT22;447;51.332;6.778;2022-09-17T16:14:56;17.80;85.70
921;DHT22;447;51.332;6.778;2022-09-17T16:17:28;17.80;85.50
921;DHT22;447;51.332;6.778;2022-09-17T16:20:33;17.80;85.40
921;DHT22;447;51.332;6.778;2022-09-17T16:22:59;17.80;85.20
921;DHT22;447;51.332;6.778;2022-09-17T16:25:28;17.80;84.90
921;DHT22;447;51.332;6.778;2022-09-17T16:28:07;17.70;84.60
921;DHT22;447;51.332;6.778;2022-09-17T16:30:41;17.70;84.40
921;DHT22;447;51.332;6.778;2022-09-17T16:33:11;17.80;84.50
921;DHT22;447;51.332;6.778;2022-09-17T16:35:40;17.70;85.10
921;DHT22;447;51.332;6.778;2022-09-17T16:38:20;17.80;84.40
921;DHT22;447;51.332;6.778;2022-09-17T16:40:46;17.70;84.40
921;DHT22;447;51.332;6.778;2022-09-17T16:43:13;17.70;84.50
921;DHT22;447;51.332;6.778;2022-09-17T16:46:15;17.70;84.40
921;DHT22;447;51.332;6.778;2022-09-17T16:48:49;17.70;84.50
921;DHT22;447;51.332;6.778;2022-09-17T16:51:20;17.70;84.60
921;DHT22;447;51.332;6.778;2022-09-17T16:53:47;17.70;84.60
921;DHT22;447;51.332;6.778;2022-09-17T16:56:15;17.70;84.70
921;DHT22;447;51.332;6.778;2022-09-17T16:58:46;17.70;84.80
921;DHT22;447;51.332;6.778;2022-09-17T17:01:17;17.70;84.80
921;DHT22;447;51.332;6.778;2022-09-17T17:03:45;17.70;84.70
921;DHT22;447;51.332;6.778;2022-09-17T17:06:19;17.70;84.50
921;DHT22;447;51.332;6.778;2022-09-17T17:08:46;17.70;85.20
921;DHT22;447;51.332;6.778;2022-09-17T17:11:14;17.60;84.20
921;DHT22;447;51.332;6.778;2022-09-17T17:13:43;17.60;84.20
921;DHT22;447;51.332;6.778;2022-09-17T17:16:11;17.60;84.20
921;DHT22;447;51.332;6.778;2022-09-17T17:18:43;17.60;84.20
921;DHT22;447;51.332;6.778;2022-09-17T17:21:11;17.60;84.10
921;DHT22;447;51.332;6.778;2022-09-17T17:23:37;17.60;84.10
921;DHT22;447;51.332;6.778;2022-09-17T17:26:03;17.60;84.10
921;DHT22;447;51.332;6.778;2022-09-17T17:28:34;17.60;84.10
921;DHT22;447;51.332;6.778;2022-09-17T17:31:06;17.60;83.90
921;DHT22;447;51.332;6.778;2022-09-17T17:33:35;17.60;84.00
921;DHT22;447;51.332;6.778;2022-09-17T17:36:05;17.60;84.00
921;DHT22;447;51.332;6.778;2022-09-17T17:38:32;17.60;84.00
921;DHT22;447;51.332;6.778;2022-09-17T17:41:07;17.50;84.00
921;DHT22;447;51.332;6.778;2022-09-17T17:43:33;17.50;84.00
921;DHT22;447;51.332;6.778;2022-09-17T17:46:00;17.50;84.10
921;DHT22;447;51.332;6.778;2022-09-17T17:48:27;17.50;84.10
921;DHT22;447;51.332;6.778;2022-09-17T17:50:53;17.50;84.20
921;DHT22;447;51.332;6.778;2022-09-17T17:53:19;17.50;84.30
921;DHT22;447;51.332;6.778;2022-09-17T17:56:01;17.50;84.30
921;DHT22;447;51.332;6.778;2022-09-17T17:58:27;17.50;84.40
921;DHT22;447;51.332;6.778;2022-09-17T18:00:54;17.50;84.50
921;DHT22;447;51.332;6.778;2022-09-17T18:03:23;17.50;84.50
921;DHT22;447;51.332;6.778;2022-09-17T18:05:53;17.50;85.30
921;DHT22;447;51.332;6.778;2022-09-17T18:08:45;17.40;84.40
921;DHT22;447;51.332;6.778;2022-09-17T18:11:16;17.40;84.40
921;DHT22;447;51.332;6.778;2022-09-17T18:13:42;17.40;84.40
921;DHT22;447;51.332;6.778;2022-09-17T18:16:12;17.40;84.30
921;DHT22;447;51.332;6.778;2022-09-17T18:18:42;17.40;84.20
921;DHT22;447;51.332;6.778;2022-09-17T18:21:11;17.40;84.20
921;DHT22;447;51.332;6.778;2022-09-17T18:23:38;17.40;84.10
921;DHT22;447;51.332;6.778;2022-09-17T18:26:09;17.40;84.10
921;DHT22;447;51.332;6.778;2022-09-17T18:28:35;17.40;84.20
921;DHT22;447;51.332;6.778;2022-09-17T18:31:28;17.30;84.10
921;DHT22;447;51.332;6.778;2022-09-17T18:36:30;17.40;84.10
921;DHT22;447;51.332;6.778;2022-09-17T18:39:04;17.30;84.00
921;DHT22;447;51.332;6.778;2022-09-17T18:41:32;17.30;84.10
921;DHT22;447;51.332;6.778;2022-09-17T18:44:20;17.30;84.20
921;DHT22;447;51.332;6.778;2022-09-17T18:46:49;17.30;84.20
921;DHT22;447;51.332;6.778;2022-09-17T18:49:18;17.30;84.50
921;DHT22;447;51.332;6.778;2022-09-17T18:51:46;17.30;84.50
921;DHT22;447;51.332;6.778;2022-09-17T18:54:12;17.30;84.50
921;DHT22;447;51.332;6.778;2022-09-17T18:56:39;17.30;84.50
921;DHT22;447;51.332;6.778;2022-09-17T18:59:07;17.30;84.60
921;DHT22;447;51.332;6.778;2022-09-17T19:01:34;17.30;84.60
921;DHT22;447;51.332;6.778;2022-09-17T19:04:03;17.30;84.70
921;DHT22;447;51.332;6.778;2022-09-17T19:06:32;17.30;84.80
921;DHT22;447;51.332;6.778;2022-09-17T19:08:59;17.30;84.80
921;DHT22;447;51.332;6.778;2022-09-17T19:11:28;17.30;84.90
921;DHT22;447;51.332;6.778;2022-09-17T19:13:55;17.20;84.80
921;DHT22;447;51.332;6.778;2022-09-17T19:16:21;17.20;84.90
921;DHT22;447;51.332;6.778;2022-09-17T19:18:47;17.20;84.90
921;DHT22;447;51.332;6.778;2022-09-17T19:21:19;17.20;84.90
921;DHT22;447;51.332;6.778;2022-09-17T19:23:50;17.20;84.80
921;DHT22;447;51.332;6.778;2022-09-17T19:26:25;17.20;84.70
921;DHT22;447;51.332;6.778;2022-09-17T19:28:52;17.20;84.60
921;DHT22;447;51.332;6.778;2022-09-17T19:31:21;17.20;85.30
921;DHT22;447;51.332;6.778;2022-09-17T19:33:48;17.20;84.50
921;DHT22;447;51.332;6.778;2022-09-17T19:36:18;17.20;84.50
921;DHT22;447;51.332;6.778;2022-09-17T19:38:45;17.10;84.20
921;DHT22;447;51.332;6.778;2022-09-17T19:41:18;17.20;84.20
921;DHT22;447;51.332;6.778;2022-09-17T19:43:45;17.20;84.20
921;DHT22;447;51.332;6.778;2022-09-17T19:46:14;17.20;84.10
921;DHT22;447;51.332;6.778;2022-09-17T19:48:45;17.10;83.90
921;DHT22;447;51.332;6.778;2022-09-17T19:51:11;17.10;83.80
921;DHT22;447;51.332;6.778;2022-09-17T19:53:37;17.10;83.70
921;DHT22;447;51.332;6.778;2022-09-17T19:56:05;17.10;83.60
921;DHT22;447;51.332;6.778;2022-09-17T19:58:34;17.10;83.50
921;DHT22;447;51.332;6.778;2022-09-17T20:01:00;17.10;83.40
921;DHT22;447;51.332;6.778;2022-09-17T20:03:26;17.10;83.10
921;DHT22;447;51.332;6.778;2022-09-17T20:06:06;17.10;83.00
921;DHT22;447;51.332;6.778;2022-09-17T20:08:32;17.10;83.00
921;DHT22;447;51.332;6.778;2022-09-17T20:11:08;17.10;83.00
921;DHT22;447;51.332;6.778;2022-09-17T20:13:37;17.10;83.00
921;DHT22;447;51.332;6.778;2022-09-17T20:16:12;17.10;83.10
921;DHT22;447;51.332;6.778;2022-09-17T20:18:38;17.10;83.10
921;DHT22;447;51.332;6.778;2022-09-17T20:21:09;17.00;83.00
921;DHT22;447;51.332;6.778;2022-09-17T20:23:38;17.00;83.10
921;DHT22;447;51.332;6.778;2022-09-17T20:26:04;17.00;83.10
921;DHT22;447;51.332;6.778;2022-09-17T20:28:33;17.00;83.10
921;DHT22;447;51.332;6.778;2022-09-17T20:31:14;17.00;84.00
921;DHT22;447;51.332;6.778;2022-09-17T20:33:41;17.00;83.30
921;DHT22;447;51.332;6.778;2022-09-17T20:36:12;17.00;83.40
921;DHT22;447;51.332;6.778;2022-09-17T20:38:39;17.00;83.40
921;DHT22;447;51.332;6.778;2022-09-17T20:41:08;17.00;83.40
921;DHT22;447;51.332;6.778;2022-09-17T20:43:36;17.00;83.50
921;DHT22;447;51.332;6.778;2022-09-17T20:46:05;17.00;83.50
921;DHT22;447;51.332;6.778;2022-09-17T20:48:35;17.00;83.50
921;DHT22;447;51.332;6.778;2022-09-17T20:51:09;17.00;83.60
921;DHT22;447;51.332;6.778;2022-09-17T20:53:38;17.00;83.60
921;DHT22;447;51.332;6.778;2022-09-17T20:56:16;17.00;83.70
921;DHT22;447;51.332;6.778;2022-09-17T20:58:44;17.00;83.70
921;DHT22;447;51.332;6.778;2022-09-17T21:01:19;16.90;83.70